Latest Weather Observations for Liawenee

IDT60801

Issued at 7:05 am EDT Monday 24 November 2014 (issued every 30 minutes, with the page automatically refreshed every 10 minutes)

About weather observations | Map of weather stations | Latest weather observations for TAS | Other Formats
Station Details ID: 096033 Name: LIAWENEE Lat: -41.90 Lon: 146.67 Height: 1057.0 m
Data from the previous 72 hours. | See also: Recent months at Liawenee
Date/Time
EDT
Temp
°C
App
Temp
°C
Dew
Point
Rel
Hum
%
Delta-T
°C
Wind Press
QNH
hPa
Press
MSL
hPa
Rain
since 9 am
mm
Dir
 
Spd
km/h
Gust
km/h
Spd
kts
Gust
kts
24/07:00am 10.0 3.8 1.9 57 3.6 NW 24 43 13 23 1009.4 1008.4 0.0
24/06:30am 9.7 3.0 1.6 57 3.6 NW 26 39 14 21 1009.5 1008.5 0.0
24/06:00am 8.9 2.7 2.0 62 3.1 NW 24 35 13 19 1009.4 1008.4 0.0
24/05:41am 8.7 1.7 2.1 63 2.9 WNW 28 48 15 26 1010.3 1009.3 0.0
24/05:30am 8.2 2.7 2.0 65 2.7 NW 20 37 11 20 1010.1 1009.1 0.0
24/05:00am 8.1 4.4 2.6 68 2.5 NW 11 26 6 14 1010.4 1009.4 0.0
24/04:30am 8.2 3.3 1.8 64 2.8 NNW 17 28 9 15 1010.9 1009.9 0.0
24/04:00am 7.5 3.8 2.4 70 2.3 NW 11 22 6 12 1010.6 1009.6 0.0
24/03:30am 5.9 2.6 2.2 77 1.6 NW 9 15 5 8 1010.9 1009.9 0.0
24/03:00am 1.7 -1.1 -0.7 84 0.9 NE 4 6 2 3 1011.3 1010.3 0.0
24/02:30am 1.5 -1.8 -0.1 89 0.6 NNE 7 11 4 6 1011.3 1010.3 0.0
24/02:00am 4.0 0.7 0.2 76 1.5 N 7 9 4 5 1011.8 1010.8 0.0
24/01:30am 5.3 1.8 1.2 75 1.7 N 9 13 5 7 1012.2 1011.2 0.0
24/01:00am 5.1 1.5 0.9 74 1.8 N 9 11 5 6 1012.4 1011.5 0.0
24/12:30am 5.3 1.7 0.5 71 2.0 N 9 11 5 6 1012.4 1011.5 0.0
24/12:00am 6.0 2.5 1.5 73 1.9 N 9 11 5 6 1012.7 1011.8 0.0
 
Date/Time
EDT
Temp
°C
App
Temp
°C
Dew
Point
Rel
Hum
%
Delta-T
°C
Wind Press
QNH
hPa
Press
MSL
hPa
Rain
since 9 am
mm
Dir
 
Spd
km/h
Gust
km/h
Spd
kts
Gust
kts
23/11:30pm 6.2 3.2 2.1 75 1.8 N 7 11 4 6 1012.9 1011.9 0.0
23/11:00pm 6.8 2.7 2.5 74 1.9 W 13 20 7 11 1013.0 1012.0 0.0
23/10:30pm 7.2 2.8 2.7 73 2.0 W 15 20 8 11 1013.3 1012.4 0.0
23/10:00pm 7.4 2.2 2.3 70 2.3 W 19 24 10 13 1013.3 1012.4 0.0
23/09:30pm 8.3 3.8 1.9 64 2.8 W 15 20 8 11 1013.2 1012.2 0.0
23/09:00pm 9.2 4.7 2.1 61 3.2 W 15 24 8 13 1013.0 1012.0 0.0
23/08:30pm 10.3 5.6 1.2 53 4.0 WNW 15 20 8 11 1012.5 1011.6 0.0
23/08:00pm 12.2 6.4 -1.3 39 5.8 W 19 26 10 14 1012.1 1011.1 0.0
23/07:30pm 14.1 8.1 -1.9 33 6.8 W 20 26 11 14 1011.8 1010.8 0.0
23/07:00pm 15.2 11.6 5.1 51 5.1 NNW 13 20 7 11 1011.1 1010.1 0.0
23/06:30pm 16.3 12.9 5.9 50 5.3 N 13 20 7 11 1011.0 1010.0 0.0
23/06:00pm 16.7 12.4 5.3 47 5.8 N 17 26 9 14 1010.5 1009.5 0.0
23/05:30pm 18.2 11.7 -2.7 24 9.1 W 22 30 12 16 1010.5 1009.5 0.0
23/05:00pm 18.3 12.4 -2.6 24 9.2 W 19 28 10 15 1010.1 1009.1 0.0
23/04:30pm 18.6 12.3 -0.7 27 8.8 W 22 32 12 17 1010.1 1009.1 0.0
23/04:00pm 18.3 13.5 0.0 29 8.5 NW 15 26 8 14 1009.8 1008.7 0.0
23/03:30pm 18.5 13.9 -0.8 27 8.8 WNW 13 30 7 16 1010.0 1009.0 0.0
23/03:00pm 18.6 12.6 -1.3 26 9.0 W 20 32 11 17 1010.1 1009.1 0.0
23/02:30pm 19.1 14.7 0.2 28 8.8 W 13 26 7 14 1010.1 1009.1 0.0
23/02:00pm 17.3 11.3 -3.4 24 8.9 NW 19 28 10 15 1010.4 1009.4 0.0
23/01:30pm 18.0 12.2 0.2 30 8.2 W 20 28 11 15 1010.2 1009.2 0.0
23/01:00pm 18.0 12.2 -0.3 29 8.4 W 20 35 11 19 1010.0 1009.0 0.0
23/12:30pm 17.6 12.2 -1.1 28 8.4 W 17 33 9 18 1010.2 1009.2 0.0
23/12:00pm 16.5 11.5 -1.1 30 7.8 W 15 24 8 13 1010.1 1009.1 0.0
23/11:30am 15.8 10.5 -0.8 32 7.4 W 17 26 9 14 1010.0 1009.0 0.0
23/11:00am 15.3 9.6 -0.4 34 7.0 W 19 22 10 12 1010.2 1009.2 0.0
23/10:30am 14.4 8.1 -0.8 35 6.7 WSW 22 30 12 16 1010.0 1009.0 0.0
23/10:00am 13.7 7.4 -0.7 37 6.3 WSW 22 30 12 16 1009.5 1008.5 0.0
23/09:30am 12.7 8.5 1.7 47 5.0 SSW 13 20 7 11 1009.5 1008.5 0.0
23/09:00am 11.1 6.3 -0.1 46 4.9 WSW 15 22 8 12 1009.8 1008.7 0.0
23/08:30am 10.4 5.2 2.5 58 3.6 W 19 24 10 13 1009.2 1008.2 0.0
23/08:00am 9.0 4.3 3.0 66 2.7 W 17 22 9 12 1008.9 1007.8 0.0
23/07:30am 8.0 2.7 3.1 71 2.2 W 20 30 11 16 1008.4 1007.4 0.0
23/07:00am 6.9 3.0 3.5 79 1.5 W 13 19 7 10 1008.1 1007.0 0.0
23/06:30am 5.6 2.1 3.4 86 1.0 W 11 15 6 8 1007.7 1006.6 0.0
23/06:00am 4.6 0.3 3.1 90 0.7 W 15 20 8 11 1007.2 1006.1 0.0
23/05:30am 4.8 0.1 3.3 90 0.7 W 17 19 9 10 1006.8 1005.7 0.0
23/05:00am 6.0 2.7 4.5 90 0.7 WNW 11 15 6 8 1006.3 1005.2 0.0
23/04:30am 6.7 2.3 5.0 89 0.8 WNW 17 22 9 12 1006.3 1005.2 0.0
23/04:00am 6.9 2.0 4.9 87 0.9 W 20 22 11 12 1006.1 1005.0 0.0
23/03:30am 7.3 2.4 5.1 86 1.0 W 20 26 11 14 1006.1 1005.0 0.0
23/03:00am 7.1 2.8 5.1 87 0.9 W 17 20 9 11 1006.2 1005.1 0.0
23/02:30am 8.6 4.1 6.2 85 1.2 W 19 28 10 15 1006.2 1005.1 0.0
23/02:00am 9.5 5.1 6.4 81 1.5 WNW 19 28 10 15 1006.0 1004.9 0.0
23/01:30am 10.0 6.0 6.7 80 1.6 NW 17 26 9 14 1006.0 1004.9 0.0
23/01:00am 10.3 6.3 6.8 79 1.8 NNW 17 28 9 15 1006.2 1005.1 0.0
23/12:30am 10.4 6.0 6.7 78 1.9 NNW 19 33 10 18 1006.8 1005.7 0.0
23/12:00am 10.7 6.1 6.6 76 2.1 NNW 20 33 11 18 1006.7 1005.6 0.0
 
Date/Time
EDT
Temp
°C
App
Temp
°C
Dew
Point
Rel
Hum
%
Delta-T
°C
Wind Press
QNH
hPa
Press
MSL
hPa
Rain
since 9 am
mm
Dir
 
Spd
km/h
Gust
km/h
Spd
kts
Gust
kts
22/11:30pm 11.5 7.1 6.6 72 2.5 NW 19 30 10 16 1006.9 1005.8 0.0
22/11:00pm 12.7 8.1 6.7 67 3.1 NNW 20 41 11 22 1006.5 1005.4 0.0
22/10:30pm 12.1 7.3 7.4 73 2.4 NW 22 41 12 22 1006.9 1005.8 0.0
22/10:00pm 12.4 7.1 6.7 68 2.9 NW 24 43 13 23 1007.0 1005.9 0.0
22/09:30pm 12.2 7.1 6.0 66 3.1 NW 22 37 12 20 1006.8 1005.7 0.0
22/09:00pm 11.8 7.3 5.9 67 2.9 NNW 19 37 10 20 1006.8 1005.7 0.0
22/08:30pm 11.6 7.2 6.5 71 2.6 NNW 19 32 10 17 1006.9 1005.8 0.0
22/08:00pm 11.7 7.4 6.8 72 2.5 NNW 19 35 10 19 1006.9 1005.8 0.0
22/07:30pm 12.2 7.8 7.3 72 2.5 NNW 20 37 11 20 1006.9 1005.8 0.0
22/07:00pm 13.2 8.5 7.6 69 2.9 NNW 22 41 12 22 1006.9 1005.8 0.0
22/06:30pm 13.3 8.2 7.7 69 2.9 NW 24 43 13 23 1006.9 1005.8 0.0
22/06:00pm 13.6 8.5 7.8 68 3.0 NW 24 39 13 21 1006.5 1005.4 0.0
22/05:39pm 14.9 9.0 7.5 61 3.9 WNW 28 54 15 29 1006.7 1005.6 0.0
22/05:30pm 15.8 11.0 9.0 64 3.7 NW 24 48 13 26 1006.5 1005.4 0.0
22/05:13pm 14.2 8.0 7.7 65 3.4 NW 30 52 16 28 1006.5 1005.4 0.0
22/05:00pm 14.2 9.4 8.8 70 2.9 NW 24 48 13 26 1006.8 1005.7 0.0
22/04:30pm 12.5 8.2 7.8 73 2.4 NW 20 30 11 16 1007.2 1006.1 0.0
22/04:00pm 11.6 6.3 6.7 72 2.5 NNW 24 41 13 22 1007.8 1006.7 0.0
22/03:30pm 14.3 8.8 7.6 64 3.5 NNW 26 46 14 25 1007.7 1006.6 0.0
22/03:14pm 15.4 9.5 7.7 60 4.1 NNW 28 46 15 25 1007.4 1006.4 0.0
22/03:00pm 14.9 9.8 7.7 62 3.8 NNW 24 41 13 22 1007.7 1006.6 0.0
22/02:30pm 13.6 7.9 6.7 63 3.5 NNW 26 50 14 27 1008.0 1006.9 0.0
22/02:00pm 12.1 5.2 6.4 68 2.9 NNW 32 50 17 27 1008.3 1007.3 0.0
22/01:30pm 14.4 8.4 7.0 61 3.8 NNW 28 48 15 26 1008.4 1007.4 0.0
22/01:00pm 14.0 7.6 6.8 62 3.7 NNW 30 50 16 27 1008.3 1007.3 0.0
22/12:30pm 13.9 7.4 6.7 62 3.7 NW 30 54 16 29 1008.4 1007.4 0.0
22/12:00pm 13.2 6.2 6.8 65 3.3 NW 33 57 18 31 1008.8 1007.7 0.0
22/11:30am 13.5 6.3 5.7 59 3.9 NW 33 65 18 35 1008.9 1007.8 0.0
22/11:00am 14.9 8.1 6.7 58 4.2 WNW 32 54 17 29 1008.6 1007.6 0.0
22/10:30am 13.5 5.2 5.9 60 3.8 WNW 39 65 21 35 1008.5 1007.5 0.0
22/10:00am 13.2 5.8 5.1 58 4.0 NW 33 57 18 31 1008.9 1007.8 0.0
22/09:30am 11.6 5.3 5.5 66 3.0 NW 28 46 15 25 1009.2 1008.2 0.0
22/09:24am 11.2 5.0 6.1 71 2.5 WNW 28 46 15 25 1009.3 1008.3 0.0
22/09:00am 9.3 4.5 4.5 72 2.3 NW 19 33 10 18 1009.4 1008.4 0.0
22/08:30am 6.8 0.8 3.1 77 1.7 WNW 24 43 13 23 1009.8 1008.7 0.0
22/08:00am 9.0 1.8 1.0 57 3.5 WNW 28 56 15 30 1009.9 1008.8 0.0
22/07:59am 9.0 1.8 1.0 57 3.5 WNW 28 56 15 30 1009.8 1008.7 0.0
22/07:30am 8.7 1.8 -2.3 46 4.4 WNW 24 35 13 19 1009.4 1008.4 0.0
22/07:00am 8.1 0.9 -1.7 50 4.0 NW 26 39 14 21 1009.3 1008.3 0.0
22/06:43am 8.3 0.9 -1.0 52 3.8 NW 28 48 15 26 1009.0 1007.9 0.0
22/06:30am 8.2 2.4 -0.3 55 3.6 NW 20 35 11 19 1008.8 1007.7 0.0
22/06:00am 8.7 2.5 -0.1 54 3.7 NW 22 37 12 20 1008.8 1007.7 0.0
22/05:30am 8.7 2.9 -0.3 53 3.8 NW 20 32 11 17 1008.4 1007.4 0.0
22/05:00am 8.2 1.9 -3.9 42 4.7 NW 20 32 11 17 1008.4 1007.4 0.0
22/04:30am 7.7 1.5 -4.4 42 4.6 NW 19 30 10 16 1008.5 1007.5 0.0
22/04:00am 7.3 1.0 -5.4 40 4.7 NW 19 30 10 16 1008.4 1007.4 0.0
22/03:30am 6.8 1.3 -5.2 42 4.4 NW 15 22 8 12 1008.4 1007.4 0.0
22/03:00am 6.9 0.6 -4.2 45 4.2 NW 20 30 11 16 1008.6 1007.6 0.0
22/02:30am 7.0 1.5 -2.4 51 3.7 NW 17 26 9 14 1009.1 1008.1 0.0
22/02:00am 7.2 1.8 -1.5 54 3.5 WNW 17 26 9 14 1009.4 1008.4 0.0
22/01:30am 6.5 2.1 0.6 66 2.5 NNW 13 19 7 10 1009.6 1008.6 0.0
22/01:00am 6.3 1.9 0.4 66 2.5 NW 13 22 7 12 1010.3 1009.3 0.0
22/12:30am 6.2 1.7 -0.1 64 2.6 NW 13 20 7 11 1010.6 1009.6 0.0
22/12:00am 6.0 2.3 -0.1 65 2.5 WNW 9 17 5 9 1010.6 1009.6 0.0
 
Date/Time
EDT
Temp
°C
App
Temp
°C
Dew
Point
Rel
Hum
%
Delta-T
°C
Wind Press
QNH
hPa
Press
MSL
hPa
Rain
since 9 am
mm
Dir
 
Spd
km/h
Gust
km/h
Spd
kts
Gust
kts
21/11:30pm 5.1 1.9 -0.3 68 2.2 NW 6 11 3 6 1011.0 1010.0 0.0
21/11:00pm 3.8 0.5 -1.4 69 2.0 N 6 7 3 4 1011.1 1010.1 0.0
21/10:30pm 5.4 1.5 -1.5 61 2.7 NW 9 11 5 6 1011.0 1010.0 0.0
21/10:00pm 5.9 2.0 -1.7 58 3.0 NNW 9 13 5 7 1010.9 1009.9 0.0
21/09:30pm 6.0 1.6 -2.3 55 3.2 WNW 11 15 6 8 1010.8 1009.8 0.0
21/09:00pm 6.8 2.0 -2.9 50 3.8 WNW 13 17 7 9 1010.3 1009.3 0.0
21/08:30pm 7.0 2.6 -2.4 51 3.7 W 11 15 6 8 1009.9 1008.8 0.0
21/08:00pm 8.8 3.6 -3.1 43 4.7 WNW 15 20 8 11 1009.8 1008.7 0.0
21/07:30pm 10.2 4.8 -1.5 44 4.9 W 17 22 9 12 1009.1 1008.1 0.0
21/07:00pm 11.6 5.6 -1.9 39 5.7 WSW 20 26 11 14 1008.4 1007.4 0.0
21/06:30pm 12.1 6.3 -1.8 38 5.8 WSW 19 28 10 15 1008.1 1007.0 0.0
21/06:00pm 12.5 7.1 -1.1 39 5.9 W 17 26 9 14 1007.7 1006.6 0.0
21/05:30pm 12.5 6.7 0.0 42 5.5 SW 20 35 11 19 1007.4 1006.4 0.0
21/05:00pm 12.4 5.7 -1.1 39 5.8 SW 24 33 13 18 1007.1 1006.0 0.0
21/04:30pm 12.4 6.3 0.5 44 5.3 WSW 22 35 12 19 1007.0 1005.9 0.0
21/04:00pm 12.4 7.0 2.3 50 4.7 WSW 20 32 11 17 1007.0 1005.9 0.0
21/03:30pm 12.4 6.5 1.7 48 4.9 WSW 22 32 12 17 1006.9 1005.8 0.0
21/03:00pm 12.7 6.0 1.4 46 5.2 WSW 26 35 14 19 1006.5 1005.4 0.0
21/02:30pm 12.5 6.8 2.9 52 4.5 WSW 22 39 12 21 1006.2 1005.1 0.0
21/02:00pm 11.4 5.6 4.2 61 3.5 WSW 24 35 13 19 1006.3 1005.2 0.0
21/01:30pm 11.5 6.1 4.3 61 3.4 WSW 22 33 12 18 1006.2 1005.1 0.0
21/01:00pm 10.8 5.1 2.9 58 3.7 WSW 22 30 12 16 1005.9 1004.8 0.0
21/12:30pm 8.6 3.4 3.8 72 2.2 WSW 20 28 11 15 1005.4 1004.3 0.0
21/12:00pm 7.4 1.2 4.4 81 1.4 WSW 26 33 14 18 1005.8 1004.7 0.0
21/11:30am 8.0 1.8 4.2 77 1.8 SW 26 33 14 18 1005.4 1004.3 0.0
21/11:00am 8.4 2.9 4.0 74 2.1 SW 22 30 12 16 1004.9 1003.7 0.0
21/10:30am 8.6 3.4 3.8 72 2.2 SW 20 28 11 15 1005.0 1003.9 0.0
21/10:00am 8.6 3.1 4.0 73 2.1 WSW 22 26 12 14 1004.4 1003.3 0.0
21/09:30am 8.7 3.3 4.5 75 2.0 WSW 22 35 12 19 1004.0 1002.8 0.0
21/09:00am 8.6 3.1 4.2 74 2.1 WSW 22 32 12 17 1004.0 1002.8 0.4
21/08:30am 8.6 3.6 4.4 75 2.0 WSW 20 30 11 16 1003.7 1002.5 0.4
21/08:00am 9.1 3.8 5.1 76 1.9 WSW 22 30 12 16 1003.1 1001.9 0.4
21/07:30am 8.4 2.8 5.5 82 1.4 WSW 24 32 13 17 1002.7 1001.5 0.4

Other Formats:

Comma delimited format used in spreadsheet applications
http://www.bom.gov.au/fwo/IDT60801/IDT60801.95959.axf

JavaScript Object Notation format (JSON) in row-major order
http://www.bom.gov.au/fwo/IDT60801/IDT60801.95959.json